sensor_id;sensor_type;location;lat;lon;timestamp;temperature;humidity
12111;DHT22;6119;52.372;8.990;2022-10-01T00:02:13;13.60;99.90
12111;DHT22;6119;52.372;8.990;2022-10-01T00:04:59;13.60;99.90
12111;DHT22;6119;52.372;8.990;2022-10-01T00:07:46;13.50;99.90
12111;DHT22;6119;52.372;8.990;2022-10-01T00:10:33;13.60;99.90
12111;DHT22;6119;52.372;8.990;2022-10-01T00:13:21;13.50;99.90
12111;DHT22;6119;52.372;8.990;2022-10-01T00:16:11;13.60;99.90
12111;DHT22;6119;52.372;8.990;2022-10-01T00:18:58;13.50;99.90
12111;DHT22;6119;52.372;8.990;2022-10-01T00:21:45;13.50;99.90
12111;DHT22;6119;52.372;8.990;2022-10-01T00:24:31;13.50;99.90
12111;DHT22;6119;52.372;8.990;2022-10-01T00:27:18;13.50;99.90
12111;DHT22;6119;52.372;8.990;2022-10-01T00:30:05;13.50;99.90
12111;DHT22;6119;52.372;8.990;2022-10-01T00:32:54;13.40;99.90
12111;DHT22;6119;52.372;8.990;2022-10-01T00:35:40;13.50;99.90
12111;DHT22;6119;52.372;8.990;2022-10-01T00:38:27;13.50;99.90
12111;DHT22;6119;52.372;8.990;2022-10-01T00:41:15;13.50;99.90
12111;DHT22;6119;52.372;8.990;2022-10-01T00:44:26;13.50;99.90
12111;DHT22;6119;52.372;8.990;2022-10-01T00:47:20;13.60;99.90
12111;DHT22;6119;52.372;8.990;2022-10-01T00:50:16;13.60;99.90
12111;DHT22;6119;52.372;8.990;2022-10-01T00:53:07;13.60;99.90
12111;DHT22;6119;52.372;8.990;2022-10-01T00:55:57;13.60;99.90
12111;DHT22;6119;52.372;8.990;2022-10-01T00:58:44;13.60;99.90
12111;DHT22;6119;52.372;8.990;2022-10-01T01:01:31;13.60;99.90
12111;DHT22;6119;52.372;8.990;2022-10-01T01:04:19;13.60;99.90
12111;DHT22;6119;52.372;8.990;2022-10-01T01:07:08;13.60;99.90
12111;DHT22;6119;52.372;8.990;2022-10-01T01:09:55;13.60;99.90
12111;DHT22;6119;52.372;8.990;2022-10-01T01:12:57;13.60;99.90
12111;DHT22;6119;52.372;8.990;2022-10-01T01:15:51;13.50;99.90
12111;DHT22;6119;52.372;8.990;2022-10-01T01:18:43;13.60;99.90
12111;DHT22;6119;52.372;8.990;2022-10-01T01:21:33;13.60;99.90
12111;DHT22;6119;52.372;8.990;2022-10-01T01:24:31;13.60;99.90
12111;DHT22;6119;52.372;8.990;2022-10-01T01:27:27;13.60;99.90
12111;DHT22;6119;52.372;8.990;2022-10-01T01:30:18;13.50;99.90
12111;DHT22;6119;52.372;8.990;2022-10-01T01:33:09;13.60;99.90
12111;DHT22;6119;52.372;8.990;2022-10-01T01:36:01;13.50;99.90
12111;DHT22;6119;52.372;8.990;2022-10-01T01:38:51;13.60;99.90
12111;DHT22;6119;52.372;8.990;2022-10-01T01:41:43;13.60;99.90
12111;DHT22;6119;52.372;8.990;2022-10-01T01:44:37;13.60;99.90
12111;DHT22;6119;52.372;8.990;2022-10-01T01:47:27;13.60;99.90
12111;DHT22;6119;52.372;8.990;2022-10-01T01:50:17;13.60;99.90
12111;DHT22;6119;52.372;8.990;2022-10-01T01:53:04;13.60;99.90
12111;DHT22;6119;52.372;8.990;2022-10-01T01:55:52;13.60;99.90
12111;DHT22;6119;52.372;8.990;2022-10-01T01:58:41;13.60;99.90
12111;DHT22;6119;52.372;8.990;2022-10-01T02:01:36;13.60;99.90
12111;DHT22;6119;52.372;8.990;2022-10-01T02:04:27;13.60;99.90
12111;DHT22;6119;52.372;8.990;2022-10-01T02:07:43;13.50;99.90
12111;DHT22;6119;52.372;8.990;2022-10-01T02:10:48;13.50;99.90
12111;DHT22;6119;52.372;8.990;2022-10-01T02:13:45;13.50;99.90
12111;DHT22;6119;52.372;8.990;2022-10-01T02:16:45;13.50;99.90
12111;DHT22;6119;52.372;8.990;2022-10-01T02:19:40;13.50;99.90
12111;DHT22;6119;52.372;8.990;2022-10-01T02:22:34;13.40;99.90
12111;DHT22;6119;52.372;8.990;2022-10-01T02:25:30;13.50;99.90
12111;DHT22;6119;52.372;8.990;2022-10-01T02:28:21;13.40;99.90
12111;DHT22;6119;52.372;8.990;2022-10-01T02:31:10;13.40;99.90
12111;DHT22;6119;52.372;8.990;2022-10-01T02:33:59;13.40;99.90
12111;DHT22;6119;52.372;8.990;2022-10-01T02:36:48;13.40;99.90
12111;DHT22;6119;52.372;8.990;2022-10-01T02:39:37;13.40;99.90
12111;DHT22;6119;52.372;8.990;2022-10-01T02:42:27;13.40;99.90
12111;DHT22;6119;52.372;8.990;2022-10-01T02:45:16;13.40;99.90
12111;DHT22;6119;52.372;8.990;2022-10-01T02:48:09;13.40;99.90
12111;DHT22;6119;52.372;8.990;2022-10-01T02:51:02;13.40;99.90
12111;DHT22;6119;52.372;8.990;2022-10-01T02:53:57;13.40;99.90
12111;DHT22;6119;52.372;8.990;2022-10-01T02:56:44;13.40;99.90
12111;DHT22;6119;52.372;8.990;2022-10-01T02:59:50;13.50;99.90
12111;DHT22;6119;52.372;8.990;2022-10-01T03:02:36;13.40;99.90
12111;DHT22;6119;52.372;8.990;2022-10-01T03:05:24;13.40;99.90
12111;DHT22;6119;52.372;8.990;2022-10-01T03:08:10;13.40;99.90
12111;DHT22;6119;52.372;8.990;2022-10-01T03:10:58;13.40;99.90
12111;DHT22;6119;52.372;8.990;2022-10-01T03:13:45;13.20;99.90
12111;DHT22;6119;52.372;8.990;2022-10-01T03:16:32;13.20;99.90
12111;DHT22;6119;52.372;8.990;2022-10-01T03:19:19;13.20;99.90
12111;DHT22;6119;52.372;8.990;2022-10-01T03:22:08;13.10;99.90
12111;DHT22;6119;52.372;8.990;2022-10-01T03:24:57;12.90;99.90
12111;DHT22;6119;52.372;8.990;2022-10-01T03:27:45;12.90;99.90
12111;DHT22;6119;52.372;8.990;2022-10-01T03:30:32;12.80;99.90
12111;DHT22;6119;52.372;8.990;2022-10-01T03:33:18;12.60;99.90
12111;DHT22;6119;52.372;8.990;2022-10-01T03:36:05;12.60;99.90
12111;DHT22;6119;52.372;8.990;2022-10-01T03:38:52;12.60;99.90
12111;DHT22;6119;52.372;8.990;2022-10-01T03:41:38;12.50;99.90
12111;DHT22;6119;52.372;8.990;2022-10-01T03:44:26;12.40;99.90
12111;DHT22;6119;52.372;8.990;2022-10-01T03:47:13;12.50;99.90
12111;DHT22;6119;52.372;8.990;2022-10-01T03:50:00;12.30;99.90
12111;DHT22;6119;52.372;8.990;2022-10-01T03:52:46;12.40;99.90
12111;DHT22;6119;52.372;8.990;2022-10-01T03:55:35;12.30;99.90
12111;DHT22;6119;52.372;8.990;2022-10-01T03:58:21;12.30;99.90
12111;DHT22;6119;52.372;8.990;2022-10-01T04:01:09;12.30;99.90
12111;DHT22;6119;52.372;8.990;2022-10-01T04:03:56;12.30;99.90
12111;DHT22;6119;52.372;8.990;2022-10-01T04:06:42;12.30;99.90
12111;DHT22;6119;52.372;8.990;2022-10-01T04:09:29;12.30;99.90
12111;DHT22;6119;52.372;8.990;2022-10-01T04:12:15;12.20;99.90
12111;DHT22;6119;52.372;8.990;2022-10-01T04:15:04;12.10;99.90
12111;DHT22;6119;52.372;8.990;2022-10-01T04:17:52;12.10;99.90
12111;DHT22;6119;52.372;8.990;2022-10-01T04:20:40;12.10;99.90
12111;DHT22;6119;52.372;8.990;2022-10-01T04:23:26;12.10;99.90
12111;DHT22;6119;52.372;8.990;2022-10-01T04:26:13;12.10;99.90
12111;DHT22;6119;52.372;8.990;2022-10-01T04:29:02;12.00;99.90
12111;DHT22;6119;52.372;8.990;2022-10-01T04:31:48;11.90;99.90
12111;DHT22;6119;52.372;8.990;2022-10-01T04:34:37;11.90;99.90
12111;DHT22;6119;52.372;8.990;2022-10-01T04:37:38;11.80;99.90
12111;DHT22;6119;52.372;8.990;2022-10-01T04:40:25;11.90;99.90
12111;DHT22;6119;52.372;8.990;2022-10-01T04:43:11;11.90;99.90
12111;DHT22;6119;52.372;8.990;2022-10-01T04:45:58;11.90;99.90
12111;DHT22;6119;52.372;8.990;2022-10-01T04:48:46;11.80;99.90
12111;DHT22;6119;52.372;8.990;2022-10-01T04:51:34;11.80;99.90
12111;DHT22;6119;52.372;8.990;2022-10-01T04:54:21;11.80;99.90
12111;DHT22;6119;52.372;8.990;2022-10-01T04:57:08;11.70;99.90
12111;DHT22;6119;52.372;8.990;2022-10-01T04:59:54;11.70;99.90
12111;DHT22;6119;52.372;8.990;2022-10-01T05:02:43;11.60;99.90
12111;DHT22;6119;52.372;8.990;2022-10-01T05:05:30;11.60;99.90
12111;DHT22;6119;52.372;8.990;2022-10-01T05:08:20;11.60;99.90
12111;DHT22;6119;52.372;8.990;2022-10-01T05:11:07;11.60;99.90
12111;DHT22;6119;52.372;8.990;2022-10-01T05:13:53;11.60;99.90
12111;DHT22;6119;52.372;8.990;2022-10-01T05:16:40;11.60;99.90
12111;DHT22;6119;52.372;8.990;2022-10-01T05:19:27;11.50;99.90
12111;DHT22;6119;52.372;8.990;2022-10-01T05:22:15;11.50;99.90
12111;DHT22;6119;52.372;8.990;2022-10-01T05:25:04;11.50;99.90
12111;DHT22;6119;52.372;8.990;2022-10-01T05:27:51;11.50;99.90
12111;DHT22;6119;52.372;8.990;2022-10-01T05:30:38;11.50;99.90
12111;DHT22;6119;52.372;8.990;2022-10-01T05:33:25;11.50;99.90
12111;DHT22;6119;52.372;8.990;2022-10-01T05:36:12;11.50;99.90
12111;DHT22;6119;52.372;8.990;2022-10-01T05:38:58;11.50;99.90
12111;DHT22;6119;52.372;8.990;2022-10-01T05:41:46;11.40;99.90
12111;DHT22;6119;52.372;8.990;2022-10-01T05:44:33;11.50;99.90
12111;DHT22;6119;52.372;8.990;2022-10-01T05:47:22;11.40;99.90
12111;DHT22;6119;52.372;8.990;2022-10-01T05:50:08;11.50;99.90
12111;DHT22;6119;52.372;8.990;2022-10-01T05:52:55;11.40;99.90
12111;DHT22;6119;52.372;8.990;2022-10-01T05:55:42;11.40;99.90
12111;DHT22;6119;52.372;8.990;2022-10-01T05:58:30;11.40;99.90
12111;DHT22;6119;52.372;8.990;2022-10-01T06:01:17;11.40;99.90
12111;DHT22;6119;52.372;8.990;2022-10-01T06:04:03;11.40;99.90
12111;DHT22;6119;52.372;8.990;2022-10-01T06:06:51;11.40;99.90
12111;DHT22;6119;52.372;8.990;2022-10-01T06:09:38;11.40;99.90
12111;DHT22;6119;52.372;8.990;2022-10-01T06:12:25;11.40;99.90
12111;DHT22;6119;52.372;8.990;2022-10-01T06:15:13;11.40;99.90
12111;DHT22;6119;52.372;8.990;2022-10-01T06:18:01;11.40;99.90
12111;DHT22;6119;52.372;8.990;2022-10-01T06:20:48;11.40;99.90
12111;DHT22;6119;52.372;8.990;2022-10-01T06:23:35;11.50;99.90
12111;DHT22;6119;52.372;8.990;2022-10-01T06:26:22;11.40;99.90
12111;DHT22;6119;52.372;8.990;2022-10-01T06:29:09;11.40;99.90
12111;DHT22;6119;52.372;8.990;2022-10-01T06:31:57;11.40;99.90
12111;DHT22;6119;52.372;8.990;2022-10-01T06:34:44;11.50;99.90
12111;DHT22;6119;52.372;8.990;2022-10-01T06:37:31;11.50;99.90
12111;DHT22;6119;52.372;8.990;2022-10-01T06:40:21;11.40;99.90
12111;DHT22;6119;52.372;8.990;2022-10-01T06:43:09;11.40;99.90
12111;DHT22;6119;52.372;8.990;2022-10-01T06:45:56;11.50;99.90
12111;DHT22;6119;52.372;8.990;2022-10-01T06:48:44;11.50;99.90
12111;DHT22;6119;52.372;8.990;2022-10-01T06:51:31;11.50;99.90
12111;DHT22;6119;52.372;8.990;2022-10-01T06:54:35;11.50;99.90
12111;DHT22;6119;52.372;8.990;2022-10-01T06:57:21;11.60;99.90
12111;DHT22;6119;52.372;8.990;2022-10-01T07:00:08;11.50;99.90
12111;DHT22;6119;52.372;8.990;2022-10-01T07:02:55;11.60;99.90
12111;DHT22;6119;52.372;8.990;2022-10-01T07:05:44;11.60;99.90
12111;DHT22;6119;52.372;8.990;2022-10-01T07:08:30;11.70;99.90
12111;DHT22;6119;52.372;8.990;2022-10-01T07:11:17;11.70;99.90
12111;DHT22;6119;52.372;8.990;2022-10-01T07:14:04;11.70;99.90
12111;DHT22;6119;52.372;8.990;2022-10-01T07:16:50;11.80;99.90
12111;DHT22;6119;52.372;8.990;2022-10-01T07:19:37;11.80;99.90
12111;DHT22;6119;52.372;8.990;2022-10-01T07:22:25;11.80;99.90
12111;DHT22;6119;52.372;8.990;2022-10-01T07:25:12;11.80;99.90
12111;DHT22;6119;52.372;8.990;2022-10-01T07:28:02;11.80;99.90
12111;DHT22;6119;52.372;8.990;2022-10-01T07:30:57;11.90;99.90
12111;DHT22;6119;52.372;8.990;2022-10-01T07:33:44;11.90;99.90
12111;DHT22;6119;52.372;8.990;2022-10-01T07:36:30;11.90;99.90
12111;DHT22;6119;52.372;8.990;2022-10-01T07:39:19;12.00;99.90
12111;DHT22;6119;52.372;8.990;2022-10-01T07:42:06;12.10;99.90
12111;DHT22;6119;52.372;8.990;2022-10-01T07:44:52;12.10;99.90
12111;DHT22;6119;52.372;8.990;2022-10-01T07:47:39;12.10;99.90
12111;DHT22;6119;52.372;8.990;2022-10-01T07:50:27;12.00;99.90
12111;DHT22;6119;52.372;8.990;2022-10-01T07:53:14;12.10;99.90
12111;DHT22;6119;52.372;8.990;2022-10-01T07:56:03;12.00;99.90
12111;DHT22;6119;52.372;8.990;2022-10-01T07:58:53;12.10;99.90
12111;DHT22;6119;52.372;8.990;2022-10-01T08:01:40;12.20;99.90
12111;DHT22;6119;52.372;8.990;2022-10-01T08:04:26;12.10;99.90
12111;DHT22;6119;52.372;8.990;2022-10-01T08:07:30;12.30;99.90
12111;DHT22;6119;52.372;8.990;2022-10-01T08:10:19;12.30;99.90
12111;DHT22;6119;52.372;8.990;2022-10-01T08:13:10;12.30;99.90
12111;DHT22;6119;52.372;8.990;2022-10-01T08:16:01;12.30;99.90
12111;DHT22;6119;52.372;8.990;2022-10-01T08:18:48;12.40;99.90
12111;DHT22;6119;52.372;8.990;2022-10-01T08:21:40;12.40;99.90
12111;DHT22;6119;52.372;8.990;2022-10-01T08:24:27;12.40;99.90
12111;DHT22;6119;52.372;8.990;2022-10-01T08:27:14;12.30;99.90
12111;DHT22;6119;52.372;8.990;2022-10-01T08:30:03;12.30;99.90
12111;DHT22;6119;52.372;8.990;2022-10-01T08:32:53;12.40;99.90
12111;DHT22;6119;52.372;8.990;2022-10-01T08:35:40;12.40;99.90
12111;DHT22;6119;52.372;8.990;2022-10-01T08:38:28;12.50;99.90
12111;DHT22;6119;52.372;8.990;2022-10-01T08:41:33;12.50;99.90
12111;DHT22;6119;52.372;8.990;2022-10-01T08:44:26;12.60;99.90
12111;DHT22;6119;52.372;8.990;2022-10-01T08:47:23;12.60;99.90
12111;DHT22;6119;52.372;8.990;2022-10-01T08:50:18;12.70;99.90
12111;DHT22;6119;52.372;8.990;2022-10-01T08:53:13;12.70;99.90
12111;DHT22;6119;52.372;8.990;2022-10-01T08:56:01;12.80;99.90
12111;DHT22;6119;52.372;8.990;2022-10-01T08:58:53;12.90;99.90
12111;DHT22;6119;52.372;8.990;2022-10-01T09:01:41;13.00;99.90
12111;DHT22;6119;52.372;8.990;2022-10-01T09:04:30;13.10;99.90
12111;DHT22;6119;52.372;8.990;2022-10-01T09:07:31;13.10;99.90
12111;DHT22;6119;52.372;8.990;2022-10-01T09:10:26;13.20;99.90
12111;DHT22;6119;52.372;8.990;2022-10-01T09:13:28;13.30;99.90
12111;DHT22;6119;52.372;8.990;2022-10-01T09:16:22;13.50;99.90
12111;DHT22;6119;52.372;8.990;2022-10-01T09:19:19;13.60;99.90
12111;DHT22;6119;52.372;8.990;2022-10-01T09:22:24;13.60;99.90
12111;DHT22;6119;52.372;8.990;2022-10-01T09:25:23;13.60;99.90
12111;DHT22;6119;52.372;8.990;2022-10-01T09:28:13;13.60;99.90
12111;DHT22;6119;52.372;8.990;2022-10-01T09:31:22;13.70;99.90
12111;DHT22;6119;52.372;8.990;2022-10-01T09:34:12;13.60;99.90
12111;DHT22;6119;52.372;8.990;2022-10-01T09:37:02;13.70;99.90
12111;DHT22;6119;52.372;8.990;2022-10-01T09:40:02;13.70;99.90
12111;DHT22;6119;52.372;8.990;2022-10-01T09:42:51;13.80;99.90
12111;DHT22;6119;52.372;8.990;2022-10-01T09:45:38;13.80;99.90
12111;DHT22;6119;52.372;8.990;2022-10-01T09:48:29;13.90;99.90
12111;DHT22;6119;52.372;8.990;2022-10-01T09:51:21;14.10;99.90
12111;DHT22;6119;52.372;8.990;2022-10-01T09:54:14;14.10;99.90
12111;DHT22;6119;52.372;8.990;2022-10-01T09:57:06;14.10;99.90
12111;DHT22;6119;52.372;8.990;2022-10-01T10:00:00;14.20;99.90
12111;DHT22;6119;52.372;8.990;2022-10-01T10:02:49;14.20;99.90
12111;DHT22;6119;52.372;8.990;2022-10-01T10:05:41;14.20;99.90
12111;DHT22;6119;52.372;8.990;2022-10-01T10:08:33;14.30;99.90
12111;DHT22;6119;52.372;8.990;2022-10-01T10:11:22;14.20;99.90
12111;DHT22;6119;52.372;8.990;2022-10-01T10:14:16;14.20;99.90
12111;DHT22;6119;52.372;8.990;2022-10-01T10:17:05;14.30;99.90
12111;DHT22;6119;52.372;8.990;2022-10-01T10:19:53;14.30;99.90
12111;DHT22;6119;52.372;8.990;2022-10-01T10:22:40;14.30;99.90
12111;DHT22;6119;52.372;8.990;2022-10-01T10:25:26;14.50;99.90
12111;DHT22;6119;52.372;8.990;2022-10-01T10:28:20;14.50;99.90
12111;DHT22;6119;52.372;8.990;2022-10-01T10:31:13;14.60;99.90
12111;DHT22;6119;52.372;8.990;2022-10-01T10:34:05;14.60;99.90
12111;DHT22;6119;52.372;8.990;2022-10-01T10:36:56;14.70;99.90
12111;DHT22;6119;52.372;8.990;2022-10-01T10:39:46;14.80;99.90
12111;DHT22;6119;52.372;8.990;2022-10-01T10:42:35;14.80;99.90
12111;DHT22;6119;52.372;8.990;2022-10-01T10:45:29;14.80;99.90
12111;DHT22;6119;52.372;8.990;2022-10-01T10:48:18;15.10;99.90
12111;DHT22;6119;52.372;8.990;2022-10-01T10:51:05;15.10;99.90
12111;DHT22;6119;52.372;8.990;2022-10-01T10:53:54;15.40;99.90
12111;DHT22;6119;52.372;8.990;2022-10-01T10:57:00;15.50;99.90
12111;DHT22;6119;52.372;8.990;2022-10-01T10:59:55;15.40;99.90
12111;DHT22;6119;52.372;8.990;2022-10-01T11:02:49;15.30;99.90
12111;DHT22;6119;52.372;8.990;2022-10-01T11:05:41;15.40;99.90
12111;DHT22;6119;52.372;8.990;2022-10-01T11:08:29;15.40;99.90
12111;DHT22;6119;52.372;8.990;2022-10-01T11:11:27;15.40;99.90
12111;DHT22;6119;52.372;8.990;2022-10-01T11:14:30;15.40;99.90
12111;DHT22;6119;52.372;8.990;2022-10-01T11:17:29;15.40;99.90
12111;DHT22;6119;52.372;8.990;2022-10-01T11:20:28;15.60;99.90
12111;DHT22;6119;52.372;8.990;2022-10-01T11:23:31;15.80;99.90
12111;DHT22;6119;52.372;8.990;2022-10-01T11:26:26;15.70;99.90
12111;DHT22;6119;52.372;8.990;2022-10-01T11:29:25;15.70;99.90
12111;DHT22;6119;52.372;8.990;2022-10-01T11:32:21;15.80;99.90
12111;DHT22;6119;52.372;8.990;2022-10-01T11:35:34;16.00;99.90
12111;DHT22;6119;52.372;8.990;2022-10-01T11:38:48;16.10;99.90
12111;DHT22;6119;52.372;8.990;2022-10-01T11:41:38;15.90;99.90
12111;DHT22;6119;52.372;8.990;2022-10-01T11:44:30;16.00;99.90
12111;DHT22;6119;52.372;8.990;2022-10-01T11:47:22;16.00;99.90
12111;DHT22;6119;52.372;8.990;2022-10-01T11:50:15;16.20;99.90
12111;DHT22;6119;52.372;8.990;2022-10-01T11:53:06;16.40;99.90
12111;DHT22;6119;52.372;8.990;2022-10-01T11:55:59;16.70;99.90
12111;DHT22;6119;52.372;8.990;2022-10-01T11:59:08;16.90;99.90
12111;DHT22;6119;52.372;8.990;2022-10-01T12:02:04;17.10;99.90
12111;DHT22;6119;52.372;8.990;2022-10-01T12:04:56;16.90;99.90
12111;DHT22;6119;52.372;8.990;2022-10-01T12:07:46;17.10;99.90
12111;DHT22;6119;52.372;8.990;2022-10-01T12:10:37;17.40;99.90
12111;DHT22;6119;52.372;8.990;2022-10-01T12:13:30;17.40;99.90
12111;DHT22;6119;52.372;8.990;2022-10-01T12:16:22;17.40;99.90
12111;DHT22;6119;52.372;8.990;2022-10-01T12:19:17;17.70;99.90
12111;DHT22;6119;52.372;8.990;2022-10-01T12:22:09;17.70;99.90
12111;DHT22;6119;52.372;8.990;2022-10-01T12:24:59;17.70;99.90
12111;DHT22;6119;52.372;8.990;2022-10-01T12:27:55;17.40;99.90
12111;DHT22;6119;52.372;8.990;2022-10-01T12:30:53;17.40;99.90
12111;DHT22;6119;52.372;8.990;2022-10-01T12:33:55;17.60;99.90
12111;DHT22;6119;52.372;8.990;2022-10-01T12:36:53;17.60;99.90
12111;DHT22;6119;52.372;8.990;2022-10-01T12:39:55;17.50;99.90
12111;DHT22;6119;52.372;8.990;2022-10-01T12:42:57;17.70;99.90
12111;DHT22;6119;52.372;8.990;2022-10-01T12:45:54;17.70;99.90
12111;DHT22;6119;52.372;8.990;2022-10-01T12:48:49;17.60;99.90
12111;DHT22;6119;52.372;8.990;2022-10-01T12:51:41;17.60;99.90
12111;DHT22;6119;52.372;8.990;2022-10-01T12:54:47;17.90;99.90
12111;DHT22;6119;52.372;8.990;2022-10-01T12:57:42;18.20;99.90
12111;DHT22;6119;52.372;8.990;2022-10-01T13:00:33;18.00;99.90
12111;DHT22;6119;52.372;8.990;2022-10-01T13:03:40;18.00;99.90
12111;DHT22;6119;52.372;8.990;2022-10-01T13:06:45;18.00;99.90
12111;DHT22;6119;52.372;8.990;2022-10-01T13:09:40;18.20;99.90
12111;DHT22;6119;52.372;8.990;2022-10-01T13:12:48;18.30;99.90
12111;DHT22;6119;52.372;8.990;2022-10-01T13:15:42;18.00;99.90
12111;DHT22;6119;52.372;8.990;2022-10-01T13:18:48;17.90;99.90
12111;DHT22;6119;52.372;8.990;2022-10-01T13:21:53;17.70;99.90
12111;DHT22;6119;52.372;8.990;2022-10-01T13:24:44;17.50;99.90
12111;DHT22;6119;52.372;8.990;2022-10-01T13:27:36;16.80;99.90
12111;DHT22;6119;52.372;8.990;2022-10-01T13:30:26;15.20;99.90
12111;DHT22;6119;52.372;8.990;2022-10-01T13:33:25;14.40;99.90
12111;DHT22;6119;52.372;8.990;2022-10-01T13:36:14;13.70;99.90
12111;DHT22;6119;52.372;8.990;2022-10-01T13:39:03;13.70;99.90
12111;DHT22;6119;52.372;8.990;2022-10-01T13:41:54;13.20;99.90
12111;DHT22;6119;52.372;8.990;2022-10-01T13:44:43;13.50;99.90
12111;DHT22;6119;52.372;8.990;2022-10-01T13:47:31;13.60;99.90
12111;DHT22;6119;52.372;8.990;2022-10-01T13:50:21;13.50;99.90
12111;DHT22;6119;52.372;8.990;2022-10-01T13:53:15;13.10;99.90
12111;DHT22;6119;52.372;8.990;2022-10-01T13:56:03;13.20;99.90
12111;DHT22;6119;52.372;8.990;2022-10-01T13:58:52;13.00;99.90
12111;DHT22;6119;52.372;8.990;2022-10-01T14:01:40;13.20;99.90
12111;DHT22;6119;52.372;8.990;2022-10-01T14:04:33;13.30;99.90
12111;DHT22;6119;52.372;8.990;2022-10-01T14:07:25;13.10;99.90
12111;DHT22;6119;52.372;8.990;2022-10-01T14:10:15;13.30;99.90
12111;DHT22;6119;52.372;8.990;2022-10-01T14:13:03;13.40;99.90
12111;DHT22;6119;52.372;8.990;2022-10-01T14:16:07;13.50;99.90
12111;DHT22;6119;52.372;8.990;2022-10-01T14:18:55;13.90;99.90
12111;DHT22;6119;52.372;8.990;2022-10-01T14:21:51;14.20;99.90
12111;DHT22;6119;52.372;8.990;2022-10-01T14:24:52;14.30;99.90
12111;DHT22;6119;52.372;8.990;2022-10-01T14:27:46;14.30;99.90
12111;DHT22;6119;52.372;8.990;2022-10-01T14:30:41;14.40;99.90
12111;DHT22;6119;52.372;8.990;2022-10-01T14:33:58;14.60;99.90
12111;DHT22;6119;52.372;8.990;2022-10-01T14:36:49;14.70;99.90
12111;DHT22;6119;52.372;8.990;2022-10-01T14:39:36;14.50;99.90
12111;DHT22;6119;52.372;8.990;2022-10-01T14:42:23;14.70;99.90
12111;DHT22;6119;52.372;8.990;2022-10-01T14:45:17;15.00;99.90
12111;DHT22;6119;52.372;8.990;2022-10-01T14:48:04;15.10;99.90
12111;DHT22;6119;52.372;8.990;2022-10-01T14:50:53;15.00;99.90
12111;DHT22;6119;52.372;8.990;2022-10-01T14:53:42;15.20;99.90
12111;DHT22;6119;52.372;8.990;2022-10-01T14:56:29;15.40;99.90
12111;DHT22;6119;52.372;8.990;2022-10-01T14:59:22;15.70;99.90
12111;DHT22;6119;52.372;8.990;2022-10-01T15:02:18;15.80;99.90
12111;DHT22;6119;52.372;8.990;2022-10-01T15:05:18;16.00;99.90
12111;DHT22;6119;52.372;8.990;2022-10-01T15:08:10;16.10;99.90
12111;DHT22;6119;52.372;8.990;2022-10-01T15:11:02;15.80;99.90
12111;DHT22;6119;52.372;8.990;2022-10-01T15:13:51;15.90;99.90
12111;DHT22;6119;52.372;8.990;2022-10-01T15:16:38;15.60;99.90
12111;DHT22;6119;52.372;8.990;2022-10-01T15:19:27;15.70;99.90
12111;DHT22;6119;52.372;8.990;2022-10-01T15:22:14;15.80;99.90
12111;DHT22;6119;52.372;8.990;2022-10-01T15:25:01;15.80;99.90
12111;DHT22;6119;52.372;8.990;2022-10-01T15:27:48;16.20;99.90
12111;DHT22;6119;52.372;8.990;2022-10-01T15:30:35;16.10;99.90
12111;DHT22;6119;52.372;8.990;2022-10-01T15:33:25;16.00;99.90
12111;DHT22;6119;52.372;8.990;2022-10-01T15:36:16;15.90;99.90
12111;DHT22;6119;52.372;8.990;2022-10-01T15:39:17;15.80;99.90
12111;DHT22;6119;52.372;8.990;2022-10-01T15:42:19;15.50;99.90
12111;DHT22;6119;52.372;8.990;2022-10-01T15:45:22;15.60;99.90
12111;DHT22;6119;52.372;8.990;2022-10-01T15:48:26;15.50;99.90
12111;DHT22;6119;52.372;8.990;2022-10-01T15:51:19;15.80;99.90
12111;DHT22;6119;52.372;8.990;2022-10-01T15:54:07;15.90;99.90
12111;DHT22;6119;52.372;8.990;2022-10-01T15:56:56;15.80;99.90
12111;DHT22;6119;52.372;8.990;2022-10-01T15:59:43;15.60;99.90
12111;DHT22;6119;52.372;8.990;2022-10-01T16:02:31;15.50;99.90
12111;DHT22;6119;52.372;8.990;2022-10-01T16:05:20;15.50;99.90
12111;DHT22;6119;52.372;8.990;2022-10-01T16:08:15;15.50;99.90
12111;DHT22;6119;52.372;8.990;2022-10-01T16:11:16;15.40;99.90
12111;DHT22;6119;52.372;8.990;2022-10-01T16:14:32;15.40;99.90
12111;DHT22;6119;52.372;8.990;2022-10-01T16:17:31;15.40;99.90
12111;DHT22;6119;52.372;8.990;2022-10-01T16:20:36;15.30;99.90
12111;DHT22;6119;52.372;8.990;2022-10-01T16:23:35;15.30;99.90
12111;DHT22;6119;52.372;8.990;2022-10-01T16:26:32;15.10;99.90
12111;DHT22;6119;52.372;8.990;2022-10-01T16:29:23;15.00;99.90
12111;DHT22;6119;52.372;8.990;2022-10-01T16:32:12;15.20;99.90
12111;DHT22;6119;52.372;8.990;2022-10-01T16:35:17;15.00;99.90
12111;DHT22;6119;52.372;8.990;2022-10-01T16:38:05;15.10;99.90
12111;DHT22;6119;52.372;8.990;2022-10-01T16:40:53;15.10;99.90
12111;DHT22;6119;52.372;8.990;2022-10-01T16:43:40;15.10;99.90
12111;DHT22;6119;52.372;8.990;2022-10-01T16:46:27;15.00;99.90
12111;DHT22;6119;52.372;8.990;2022-10-01T16:49:14;15.10;99.90
12111;DHT22;6119;52.372;8.990;2022-10-01T16:52:02;14.90;99.90
12111;DHT22;6119;52.372;8.990;2022-10-01T16:54:49;14.70;99.90
12111;DHT22;6119;52.372;8.990;2022-10-01T16:57:37;14.70;99.90
12111;DHT22;6119;52.372;8.990;2022-10-01T17:00:25;14.60;99.90
12111;DHT22;6119;52.372;8.990;2022-10-01T17:03:14;14.60;99.90
12111;DHT22;6119;52.372;8.990;2022-10-01T17:06:01;14.50;99.90
12111;DHT22;6119;52.372;8.990;2022-10-01T17:08:48;14.50;99.90
12111;DHT22;6119;52.372;8.990;2022-10-01T17:11:35;14.40;99.90
12111;DHT22;6119;52.372;8.990;2022-10-01T17:14:24;14.30;99.90
12111;DHT22;6119;52.372;8.990;2022-10-01T17:17:12;14.40;99.90
12111;DHT22;6119;52.372;8.990;2022-10-01T17:19:58;14.30;99.90
12111;DHT22;6119;52.372;8.990;2022-10-01T17:22:45;14.20;99.90
12111;DHT22;6119;52.372;8.990;2022-10-01T17:25:33;14.10;99.90
12111;DHT22;6119;52.372;8.990;2022-10-01T17:28:20;14.00;99.90
12111;DHT22;6119;52.372;8.990;2022-10-01T17:31:10;14.00;99.90
12111;DHT22;6119;52.372;8.990;2022-10-01T17:34:02;13.90;99.90
12111;DHT22;6119;52.372;8.990;2022-10-01T17:36:49;13.80;99.90
12111;DHT22;6119;52.372;8.990;2022-10-01T17:39:35;13.60;99.90
12111;DHT22;6119;52.372;8.990;2022-10-01T17:42:22;13.70;99.90
12111;DHT22;6119;52.372;8.990;2022-10-01T17:45:10;13.80;99.90
12111;DHT22;6119;52.372;8.990;2022-10-01T17:47:59;13.70;99.90
12111;DHT22;6119;52.372;8.990;2022-10-01T17:50:46;13.80;99.90
12111;DHT22;6119;52.372;8.990;2022-10-01T17:53:33;13.90;99.90
12111;DHT22;6119;52.372;8.990;2022-10-01T17:56:26;13.90;99.90
12111;DHT22;6119;52.372;8.990;2022-10-01T17:59:15;13.80;99.90
12111;DHT22;6119;52.372;8.990;2022-10-01T18:02:03;13.70;99.90
12111;DHT22;6119;52.372;8.990;2022-10-01T18:05:11;13.80;99.90
12111;DHT22;6119;52.372;8.990;2022-10-01T18:07:59;13.70;99.90
12111;DHT22;6119;52.372;8.990;2022-10-01T18:10:46;13.60;99.90
12111;DHT22;6119;52.372;8.990;2022-10-01T18:13:33;13.50;99.90
12111;DHT22;6119;52.372;8.990;2022-10-01T18:16:19;13.50;99.90
12111;DHT22;6119;52.372;8.990;2022-10-01T18:19:06;13.50;99.90